createdAt,value
2023-02-14T00:01:21.031Z,98.68
2023-02-14T00:03:49.628Z,98.45
2023-02-14T00:06:19.242Z,98.29
2023-02-14T00:08:48.259Z,98.27
2023-02-14T00:11:17.208Z,99.42
2023-02-14T00:14:04.501Z,99.61
2023-02-14T00:16:33.343Z,100.00
2023-02-14T00:19:03.936Z,99.60
2023-02-14T00:21:32.806Z,100.00
2023-02-14T00:24:01.092Z,100.00
2023-02-14T00:26:29.652Z,100.00
2023-02-14T00:28:58.200Z,100.00
2023-02-14T00:31:25.736Z,100.00
2023-02-14T00:33:54.246Z,99.98
2023-02-14T00:36:21.764Z,99.74
2023-02-14T00:38:51.322Z,99.84
2023-02-14T00:41:22.939Z,100.00
2023-02-14T00:43:53.285Z,100.00
2023-02-14T00:46:22.007Z,100.00
2023-02-14T00:48:49.806Z,100.00
2023-02-14T00:51:18.527Z,100.00
2023-02-14T00:53:47.333Z,99.94
2023-02-14T00:56:15.884Z,100.00
2023-02-14T00:58:44.013Z,100.00
2023-02-14T01:01:11.695Z,100.00
2023-02-14T01:03:39.867Z,100.00
2023-02-14T01:06:07.754Z,100.00
2023-02-14T01:08:35.596Z,100.00
2023-02-14T01:11:09.131Z,100.00
2023-02-14T01:13:36.813Z,100.00
2023-02-14T01:16:09.166Z,100.00
2023-02-14T01:18:36.799Z,99.81
2023-02-14T01:21:18.286Z,99.88
2023-02-14T01:23:46.549Z,99.07
2023-02-14T01:26:14.549Z,98.83
2023-02-14T01:28:42.842Z,99.43
2023-02-14T01:31:20.144Z,99.47
2023-02-14T01:33:48.936Z,98.62
2023-02-14T01:36:21.618Z,98.67
2023-02-14T01:38:51.716Z,98.62
2023-02-14T01:41:19.121Z,99.07
2023-02-14T01:43:58.752Z,99.28
2023-02-14T01:46:27.836Z,99.86
2023-02-14T01:48:57.737Z,99.81
2023-02-14T01:51:26.147Z,100.00
2023-02-14T01:53:54.672Z,100.00
2023-02-14T01:56:27.165Z,100.00
2023-02-14T01:58:58.299Z,99.20
2023-02-14T02:01:26.720Z,97.57
2023-02-14T02:03:55.886Z,96.31
2023-02-14T02:06:30.112Z,95.25
2023-02-14T02:09:07.326Z,96.08
2023-02-14T02:11:35.216Z,96.04
2023-02-14T02:14:04.326Z,96.42
2023-02-14T02:16:40.496Z,95.99
2023-02-14T02:19:26.288Z,96.31
2023-02-14T02:21:53.938Z,96.61
2023-02-14T02:24:30.858Z,96.69
2023-02-14T02:27:16.945Z,96.24
2023-02-14T02:29:44.607Z,96.91
2023-02-14T02:32:30.771Z,98.07
2023-02-14T02:35:10.570Z,98.08
2023-02-14T02:37:41.455Z,98.20
2023-02-14T02:40:28.573Z,97.09
2023-02-14T02:43:12.617Z,97.72
2023-02-14T02:46:18.146Z,98.25
2023-02-14T02:49:08.724Z,98.70
2023-02-14T02:52:10.234Z,97.71
2023-02-14T02:54:42.126Z,98.21
2023-02-14T02:57:18.956Z,99.47
2023-02-14T02:59:48.298Z,100.00
2023-02-14T03:02:19.616Z,100.00
2023-02-14T03:04:55.527Z,100.00
2023-02-14T03:07:35.674Z,100.00
2023-02-14T03:10:12.819Z,100.00
2023-02-14T03:12:41.340Z,99.77
2023-02-14T03:15:27.624Z,100.00
2023-02-14T03:18:29.458Z,99.79
2023-02-14T03:21:13.684Z,99.25
2023-02-14T03:24:08.230Z,99.78
2023-02-14T03:26:47.664Z,99.74
2023-02-14T03:29:34.039Z,99.40
2023-02-14T03:32:25.670Z,99.18
2023-02-14T03:34:57.601Z,99.16
2023-02-14T03:37:39.671Z,99.11
2023-02-14T03:40:10.540Z,98.84
2023-02-14T03:42:44.525Z,99.56
2023-02-14T03:45:16.367Z,99.55
2023-02-14T03:47:44.924Z,99.51
2023-02-14T03:50:17.792Z,100.00
2023-02-14T03:52:46.898Z,99.96
2023-02-14T03:55:16.862Z,99.96
2023-02-14T03:57:58.882Z,99.17
2023-02-14T04:00:27.634Z,99.39
2023-02-14T04:02:58.665Z,99.47
2023-02-14T04:05:27.831Z,99.43
2023-02-14T04:07:57.862Z,100.00
2023-02-14T04:10:27.302Z,100.00
2023-02-14T04:12:55.120Z,100.00
2023-02-14T04:15:22.876Z,100.00
2023-02-14T04:18:09.050Z,100.00
2023-02-14T04:20:38.082Z,100.00
2023-02-14T04:23:06.038Z,100.00
2023-02-14T04:25:35.388Z,100.00
2023-02-14T04:28:03.074Z,100.00
2023-02-14T04:30:30.461Z,100.00
2023-02-14T04:32:59.520Z,100.00
2023-02-14T04:35:26.865Z,100.00
2023-02-14T04:37:54.251Z,100.00
2023-02-14T04:40:21.904Z,100.00
2023-02-14T04:42:49.333Z,100.00
2023-02-14T04:45:16.862Z,100.00
2023-02-14T04:47:44.237Z,100.00
2023-02-14T04:50:12.202Z,100.00
2023-02-14T04:52:39.654Z,100.00
2023-02-14T04:55:07.808Z,100.00
2023-02-14T04:57:35.598Z,100.00
2023-02-14T05:00:05.798Z,100.00
2023-02-14T05:02:34.561Z,100.00
2023-02-14T05:05:02.172Z,100.00
2023-02-14T05:07:30.131Z,100.00
2023-02-14T05:09:58.930Z,100.00
2023-02-14T05:12:26.691Z,100.00
2023-02-14T05:14:56.348Z,100.00
2023-02-14T05:17:24.620Z,100.00
2023-02-14T05:19:52.242Z,100.00
2023-02-14T05:22:19.650Z,100.00
2023-02-14T05:24:47.088Z,100.00
2023-02-14T05:27:14.969Z,100.00
2023-02-14T05:29:44.921Z,100.00
2023-02-14T05:32:12.640Z,100.00
2023-02-14T05:34:41.775Z,100.00
2023-02-14T05:37:10.401Z,100.00
2023-02-14T05:39:37.736Z,100.00
2023-02-14T05:42:05.014Z,100.00
2023-02-14T05:44:32.603Z,100.00
2023-02-14T05:47:00.643Z,100.00
2023-02-14T05:49:29.860Z,100.00
2023-02-14T05:51:57.501Z,100.00
2023-02-14T05:54:24.772Z,100.00
2023-02-14T05:56:53.032Z,100.00
2023-02-14T05:59:29.343Z,100.00
2023-02-14T06:01:58.837Z,100.00
2023-02-14T06:04:26.961Z,100.00
2023-02-14T06:06:55.381Z,100.00
2023-02-14T06:09:22.762Z,100.00
2023-02-14T06:11:50.194Z,100.00
2023-02-14T06:14:18.097Z,100.00
2023-02-14T06:16:45.880Z,100.00
2023-02-14T06:19:14.778Z,100.00
2023-02-14T06:21:43.224Z,100.00
2023-02-14T06:24:10.651Z,100.00
2023-02-14T06:26:38.004Z,100.00
2023-02-14T06:29:05.435Z,100.00
2023-02-14T06:31:32.903Z,100.00
2023-02-14T06:34:00.296Z,100.00
2023-02-14T06:36:27.824Z,100.00
2023-02-14T06:38:56.486Z,100.00
2023-02-14T06:41:23.805Z,100.00
2023-02-14T06:43:51.098Z,100.00
2023-02-14T06:46:19.039Z,100.00
2023-02-14T06:48:46.473Z,100.00
2023-02-14T06:51:14.123Z,100.00
2023-02-14T06:53:41.643Z,100.00
2023-02-14T06:56:09.058Z,100.00
2023-02-14T06:58:37.286Z,100.00
2023-02-14T07:01:06.052Z,100.00
2023-02-14T07:03:34.923Z,100.00
2023-02-14T07:06:04.839Z,100.00
2023-02-14T07:08:33.765Z,100.00
2023-02-14T07:11:01.817Z,100.00
2023-02-14T07:13:29.170Z,100.00
2023-02-14T07:15:56.879Z,100.00
2023-02-14T07:18:25.090Z,100.00
2023-02-14T07:20:53.704Z,100.00
2023-02-14T07:23:21.075Z,100.00
2023-02-14T07:25:48.717Z,100.00
2023-02-14T07:28:16.380Z,100.00
2023-02-14T07:30:44.601Z,100.00
2023-02-14T07:33:12.691Z,100.00
2023-02-14T07:35:40.111Z,99.31
2023-02-14T07:38:07.792Z,99.16
2023-02-14T07:40:36.370Z,98.17
2023-02-14T07:43:03.735Z,96.98
2023-02-14T07:45:31.814Z,96.04
2023-02-14T07:48:02.244Z,94.39
2023-02-14T07:50:30.143Z,93.41
2023-02-14T07:52:57.828Z,93.10
2023-02-14T07:55:25.241Z,92.65
2023-02-14T07:57:55.614Z,92.06
2023-02-14T08:00:24.341Z,91.45
2023-02-14T08:02:51.804Z,90.41
2023-02-14T08:05:19.317Z,89.13
2023-02-14T08:07:47.870Z,87.18
2023-02-14T08:10:15.242Z,86.20
2023-02-14T08:13:01.458Z,85.28
2023-02-14T08:15:48.853Z,85.20
2023-02-14T08:18:17.596Z,85.51
2023-02-14T08:20:46.132Z,84.99
2023-02-14T08:23:13.345Z,84.47
2023-02-14T08:25:41.520Z,84.57
2023-02-14T08:28:08.804Z,84.26
2023-02-14T08:30:38.127Z,83.24
2023-02-14T08:33:06.045Z,82.61
2023-02-14T08:35:33.609Z,80.85
2023-02-14T08:38:01.069Z,79.41
2023-02-14T08:40:28.719Z,78.83
2023-02-14T08:42:56.731Z,78.64
2023-02-14T08:45:24.020Z,78.18
2023-02-14T08:47:51.271Z,77.42
2023-02-14T08:50:19.274Z,75.28
2023-02-14T08:52:46.724Z,73.89
2023-02-14T08:55:14.508Z,71.67
2023-02-14T08:57:42.029Z,70.35
2023-02-14T09:00:10.034Z,68.60
2023-02-14T09:02:37.322Z,66.10
2023-02-14T09:05:06.219Z,65.59
2023-02-14T09:07:33.948Z,65.50
2023-02-14T09:10:01.584Z,64.72
2023-02-14T09:12:29.052Z,63.40
2023-02-14T09:14:56.520Z,63.44
2023-02-14T09:17:23.923Z,60.95
2023-02-14T09:19:51.217Z,60.24
2023-02-14T09:22:18.975Z,59.04
2023-02-14T09:24:46.416Z,58.37
2023-02-14T09:27:13.770Z,56.13
2023-02-14T09:29:41.088Z,54.81
2023-02-14T09:32:08.709Z,56.01
2023-02-14T09:34:54.954Z,56.94
2023-02-14T09:37:40.786Z,56.81
2023-02-14T09:40:08.454Z,56.30
2023-02-14T09:42:41.804Z,55.58
2023-02-14T09:45:09.704Z,55.62
2023-02-14T09:47:55.475Z,56.16
2023-02-14T09:50:30.556Z,55.73
2023-02-14T09:53:00.399Z,56.52
2023-02-14T09:55:33.628Z,55.92
2023-02-14T09:58:10.561Z,55.45
2023-02-14T10:00:41.892Z,54.15
2023-02-14T10:03:20.025Z,53.38
2023-02-14T10:05:47.400Z,52.27
2023-02-14T10:08:32.769Z,51.47
2023-02-14T10:11:04.184Z,53.41
2023-02-14T10:13:50.291Z,51.75
2023-02-14T10:16:46.689Z,51.34
2023-02-14T10:19:34.196Z,50.98
2023-02-14T10:22:02.814Z,51.13
2023-02-14T10:24:39.400Z,51.83
2023-02-14T10:27:14.432Z,50.16
2023-02-14T10:29:42.022Z,49.47
2023-02-14T10:32:18.769Z,49.17
2023-02-14T10:34:46.040Z,48.93
2023-02-14T10:37:31.763Z,48.09
2023-02-14T10:40:17.898Z,50.42
2023-02-14T10:42:50.934Z,48.77
2023-02-14T10:45:18.279Z,48.45
2023-02-14T10:48:03.875Z,48.14
2023-02-14T10:50:49.908Z,48.83
2023-02-14T10:53:32.925Z,49.44
2023-02-14T10:56:03.798Z,48.24
2023-02-14T10:58:32.708Z,47.89
2023-02-14T11:01:13.139Z,48.61
2023-02-14T11:03:43.859Z,47.69
2023-02-14T11:06:11.653Z,47.80
2023-02-14T11:08:40.417Z,48.03
2023-02-14T11:11:16.555Z,47.88
2023-02-14T11:13:44.564Z,47.82
2023-02-14T11:16:12.769Z,48.82
2023-02-14T11:18:41.046Z,48.53
2023-02-14T11:21:17.895Z,48.20
2023-02-14T11:23:47.067Z,47.54
2023-02-14T11:26:20.374Z,47.54
2023-02-14T11:28:55.189Z,47.01
2023-02-14T11:31:36.777Z,46.38
2023-02-14T11:34:20.912Z,46.40
2023-02-14T11:36:48.150Z,45.09
2023-02-14T11:39:28.936Z,45.66
2023-02-14T11:41:58.255Z,45.31
2023-02-14T11:44:27.711Z,44.85
2023-02-14T11:46:56.238Z,45.51
2023-02-14T11:49:34.022Z,45.57
2023-02-14T11:52:11.424Z,45.21
2023-02-14T11:54:40.286Z,44.71
2023-02-14T11:57:19.559Z,44.59
2023-02-14T11:59:50.792Z,45.52
2023-02-14T12:02:24.453Z,44.26
2023-02-14T12:04:54.953Z,44.50
2023-02-14T12:07:28.235Z,43.52
2023-02-14T12:10:15.752Z,43.98
2023-02-14T12:12:50.624Z,43.46
2023-02-14T12:15:23.459Z,43.65
2023-02-14T12:17:53.475Z,43.20
2023-02-14T12:20:26.669Z,44.13
2023-02-14T12:23:26.557Z,43.21
2023-02-14T12:26:00.244Z,44.15
2023-02-14T12:28:43.831Z,43.58
2023-02-14T12:31:11.816Z,43.22
2023-02-14T12:33:40.188Z,42.76
2023-02-14T12:36:16.368Z,39.89
2023-02-14T12:38:46.631Z,39.55
2023-02-14T12:41:32.323Z,41.00
2023-02-14T12:44:05.667Z,40.65
2023-02-14T12:46:42.171Z,39.69
2023-02-14T12:49:09.405Z,39.18
2023-02-14T12:52:03.104Z,39.40
2023-02-14T12:54:30.386Z,39.22
2023-02-14T12:57:08.969Z,39.45
2023-02-14T12:59:56.485Z,38.76
2023-02-14T13:02:43.961Z,38.70
2023-02-14T13:05:24.958Z,38.76
2023-02-14T13:07:55.377Z,38.28
2023-02-14T13:10:41.432Z,39.23
2023-02-14T13:13:17.938Z,38.72
2023-02-14T13:15:45.285Z,39.76
2023-02-14T13:18:19.142Z,39.44
2023-02-14T13:20:52.330Z,39.37
2023-02-14T13:23:37.777Z,39.38
2023-02-14T13:26:25.739Z,39.38
2023-02-14T13:28:58.523Z,38.94
2023-02-14T13:31:26.063Z,40.43
2023-02-14T13:33:57.391Z,40.61
2023-02-14T13:36:25.700Z,40.38
2023-02-14T13:41:23.458Z,40.97
2023-02-14T13:43:54.059Z,40.94
2023-02-14T13:46:41.329Z,41.06
2023-02-14T13:49:30.487Z,41.39
2023-02-14T13:51:59.194Z,41.59
2023-02-14T13:54:42.162Z,41.70
2023-02-14T13:57:28.272Z,41.25
2023-02-14T14:00:14.248Z,41.35
2023-02-14T14:02:48.407Z,40.94
2023-02-14T14:05:32.473Z,40.26
2023-02-14T14:08:18.786Z,40.30
2023-02-14T14:10:50.692Z,40.43
2023-02-14T14:13:36.500Z,39.95
2023-02-14T14:16:22.384Z,40.49
2023-02-14T14:18:50.658Z,40.10
2023-02-14T14:21:28.562Z,40.45
2023-02-14T14:24:14.403Z,41.19
2023-02-14T14:26:56.643Z,41.57
2023-02-14T14:29:27.380Z,42.70
2023-02-14T14:31:58.084Z,42.35
2023-02-14T14:34:28.832Z,42.28
2023-02-14T14:37:06.481Z,42.06
2023-02-14T14:39:35.358Z,42.12
2023-02-14T14:42:13.153Z,41.54
2023-02-14T14:44:54.400Z,42.71
2023-02-14T14:47:24.471Z,42.26
2023-02-14T14:49:54.638Z,43.76
2023-02-14T14:52:31.969Z,43.19
2023-02-14T14:54:59.844Z,43.46
2023-02-14T14:57:27.201Z,44.44
2023-02-14T15:00:17.546Z,43.65
2023-02-14T15:02:55.408Z,44.11
2023-02-14T15:05:27.653Z,44.66
2023-02-14T15:07:54.947Z,44.49
2023-02-14T15:10:27.334Z,45.24
2023-02-14T15:13:15.749Z,44.75
2023-02-14T15:15:47.675Z,44.53
2023-02-14T15:18:14.986Z,45.07
2023-02-14T15:20:42.849Z,45.51
2023-02-14T15:23:17.330Z,45.91
2023-02-14T15:25:45.929Z,45.88
2023-02-14T15:28:29.997Z,45.76
2023-02-14T15:30:59.200Z,46.10
2023-02-14T15:33:27.278Z,46.63
2023-02-14T15:35:55.106Z,46.80
2023-02-14T15:38:23.859Z,46.83
2023-02-14T15:40:51.933Z,47.11
2023-02-14T15:43:19.228Z,47.12
2023-02-14T15:45:49.363Z,48.92
2023-02-14T15:48:24.340Z,48.97
2023-02-14T15:50:52.922Z,49.24
2023-02-14T15:53:20.183Z,51.03
2023-02-14T15:55:51.537Z,49.25
2023-02-14T15:58:20.703Z,49.73
2023-02-14T16:00:48.669Z,49.57
2023-02-14T16:03:23.594Z,50.23
2023-02-14T16:05:50.880Z,50.44
2023-02-14T16:08:24.097Z,50.26
2023-02-14T16:11:08.977Z,49.84
2023-02-14T16:13:41.957Z,50.84
2023-02-14T16:16:13.301Z,50.97
2023-02-14T16:18:47.782Z,53.13
2023-02-14T16:21:15.150Z,53.82
2023-02-14T16:23:42.960Z,53.05
2023-02-14T16:26:11.383Z,54.71
2023-02-14T16:28:38.874Z,55.30
2023-02-14T16:31:10.441Z,57.87
2023-02-14T16:33:39.201Z,59.62
2023-02-14T16:36:07.852Z,60.65
2023-02-14T16:38:36.873Z,60.71
2023-02-14T16:41:04.096Z,62.27
2023-02-14T16:43:31.545Z,63.14
2023-02-14T16:45:58.710Z,64.60
2023-02-14T16:48:26.308Z,66.12
2023-02-14T16:50:53.639Z,66.52
2023-02-14T16:53:25.700Z,67.22
2023-02-14T16:55:54.176Z,67.21
2023-02-14T16:58:23.452Z,67.44
2023-02-14T17:00:50.764Z,68.56
2023-02-14T17:03:18.158Z,68.14
2023-02-14T17:05:45.848Z,69.22
2023-02-14T17:08:13.576Z,69.30
2023-02-14T17:10:42.029Z,69.09
2023-02-14T17:13:10.507Z,68.89
2023-02-14T17:15:39.137Z,68.70
2023-02-14T17:18:09.528Z,69.32
2023-02-14T17:20:37.369Z,69.33
2023-02-14T17:23:04.598Z,68.04
2023-02-14T17:25:31.970Z,68.36
2023-02-14T17:28:01.053Z,66.71
2023-02-14T17:30:28.486Z,65.33
2023-02-14T17:32:55.838Z,65.54
2023-02-14T17:35:23.214Z,66.49
2023-02-14T17:37:50.568Z,68.23
2023-02-14T17:40:17.833Z,68.20
2023-02-14T17:42:45.962Z,68.79
2023-02-14T17:45:13.288Z,69.84
2023-02-14T17:47:41.015Z,69.34
2023-02-14T17:50:10.542Z,70.76
2023-02-14T17:52:37.964Z,72.42
2023-02-14T17:55:06.802Z,72.66
2023-02-14T17:57:34.527Z,73.74
2023-02-14T18:00:02.890Z,74.17
2023-02-14T18:02:40.699Z,74.97
2023-02-14T18:05:08.283Z,76.28
2023-02-14T18:07:35.893Z,76.90
2023-02-14T18:10:04.486Z,76.95
2023-02-14T18:12:33.054Z,77.07
2023-02-14T18:15:00.625Z,77.59
2023-02-14T18:17:28.536Z,77.85
2023-02-14T18:19:55.991Z,77.38
2023-02-14T18:22:23.539Z,79.93
2023-02-14T18:24:51.058Z,80.34
2023-02-14T18:27:18.765Z,80.43
2023-02-14T18:29:46.348Z,80.70
2023-02-14T18:32:14.053Z,80.40
2023-02-14T18:34:41.678Z,81.96
2023-02-14T18:37:12.403Z,82.08
2023-02-14T18:39:40.232Z,82.45
2023-02-14T18:42:08.875Z,83.17
2023-02-14T18:44:36.568Z,83.48
2023-02-14T18:47:04.070Z,83.38
2023-02-14T18:49:31.577Z,83.06
2023-02-14T18:51:58.830Z,83.53
2023-02-14T18:54:26.197Z,83.06
2023-02-14T18:56:53.414Z,83.73
2023-02-14T18:59:20.851Z,84.44
2023-02-14T19:01:48.218Z,84.40
2023-02-14T19:04:17.097Z,83.45
2023-02-14T19:06:44.945Z,83.68
2023-02-14T19:09:14.503Z,84.20
2023-02-14T19:11:41.827Z,84.13
2023-02-14T19:14:10.482Z,85.06
2023-02-14T19:16:42.228Z,85.46
2023-02-14T19:19:10.173Z,85.46
2023-02-14T19:21:37.534Z,86.44
2023-02-14T19:24:08.157Z,86.13
2023-02-14T19:26:40.048Z,87.03
2023-02-14T19:29:09.783Z,86.11
2023-02-14T19:31:38.270Z,85.86
2023-02-14T19:34:06.600Z,85.34
2023-02-14T19:36:36.352Z,85.28
2023-02-14T19:39:03.731Z,85.86
2023-02-14T19:41:34.351Z,86.06
2023-02-14T19:44:04.810Z,85.52
2023-02-14T19:46:33.549Z,85.50
2023-02-14T19:49:01.700Z,85.98
2023-02-14T19:51:31.503Z,86.28
2023-02-14T19:54:01.484Z,86.61
2023-02-14T19:56:31.935Z,87.33
2023-02-14T19:58:59.865Z,87.17
2023-02-14T20:01:27.943Z,86.27
2023-02-14T20:03:55.756Z,87.16
2023-02-14T20:06:25.239Z,86.86
2023-02-14T20:08:53.986Z,87.07
2023-02-14T20:11:27.426Z,86.21
2023-02-14T20:13:55.575Z,87.04
2023-02-14T20:16:24.010Z,86.91
2023-02-14T20:18:52.702Z,87.08
2023-02-14T20:21:25.603Z,86.89
2023-02-14T20:23:54.763Z,87.36
2023-02-14T20:26:27.600Z,87.64
2023-02-14T20:28:56.013Z,87.82
2023-02-14T20:31:31.592Z,88.00
2023-02-14T20:34:00.549Z,87.46
2023-02-14T20:36:28.307Z,87.44
2023-02-14T20:38:56.741Z,87.50
2023-02-14T20:41:25.396Z,87.67
2023-02-14T20:43:54.221Z,87.64
2023-02-14T20:46:22.911Z,87.91
2023-02-14T20:48:51.199Z,87.31
2023-02-14T20:51:19.903Z,87.48
2023-02-14T20:53:48.024Z,87.73
2023-02-14T20:56:16.102Z,86.61
2023-02-14T20:58:44.052Z,86.78
2023-02-14T21:01:13.441Z,86.10
2023-02-14T21:03:42.178Z,86.69
2023-02-14T21:06:11.865Z,86.55
2023-02-14T21:08:39.708Z,86.29
2023-02-14T21:11:07.224Z,85.84
2023-02-14T21:13:35.008Z,86.17
2023-02-14T21:16:06.501Z,86.16
2023-02-14T21:18:34.598Z,86.13
2023-02-14T21:21:05.979Z,86.34
2023-02-14T21:23:33.734Z,86.14
2023-02-14T21:26:01.198Z,85.67
2023-02-14T21:28:29.075Z,85.31
2023-02-14T21:31:05.884Z,85.30
2023-02-14T21:33:33.535Z,85.52
2023-02-14T21:36:10.809Z,86.23
2023-02-14T21:38:38.391Z,86.43
2023-02-14T21:41:10.185Z,87.21
2023-02-14T21:43:42.280Z,88.35
2023-02-14T21:46:15.170Z,89.58
2023-02-14T21:49:01.124Z,90.60
2023-02-14T21:51:29.040Z,91.16
2023-02-14T21:53:57.271Z,91.29
2023-02-14T21:56:24.560Z,91.55
2023-02-14T21:58:53.141Z,93.17
2023-02-14T22:01:22.525Z,93.00
2023-02-14T22:03:50.265Z,92.81
2023-02-14T22:06:18.323Z,93.31
2023-02-14T22:08:45.770Z,93.33
2023-02-14T22:11:15.030Z,93.72
2023-02-14T22:13:42.879Z,93.73
2023-02-14T22:16:11.625Z,93.74
2023-02-14T22:18:39.329Z,93.15
2023-02-14T22:21:27.150Z,93.86
2023-02-14T22:23:55.313Z,93.97
2023-02-14T22:26:24.127Z,93.85
2023-02-14T22:28:53.904Z,93.75
2023-02-14T22:31:21.565Z,94.17
2023-02-14T22:33:49.121Z,94.92
2023-02-14T22:36:16.659Z,94.96
2023-02-14T22:38:43.911Z,95.61
2023-02-14T22:41:12.537Z,95.59
2023-02-14T22:43:39.909Z,95.54
2023-02-14T22:46:08.367Z,95.75
2023-02-14T22:48:36.266Z,96.38
2023-02-14T22:51:26.986Z,96.46
2023-02-14T22:53:58.550Z,95.76
2023-02-14T22:56:27.062Z,95.69
2023-02-14T22:58:55.455Z,94.99
2023-02-14T23:01:23.603Z,95.92
2023-02-14T23:03:55.021Z,95.54
2023-02-14T23:06:22.757Z,96.87
2023-02-14T23:08:50.034Z,96.41
2023-02-14T23:11:19.021Z,96.33
2023-02-14T23:14:04.768Z,96.64
2023-02-14T23:16:51.388Z,96.28
2023-02-14T23:19:39.406Z,97.37
2023-02-14T23:22:08.461Z,97.58
2023-02-14T23:24:35.761Z,97.93
2023-02-14T23:27:03.500Z,96.58
2023-02-14T23:29:30.733Z,97.15
2023-02-14T23:31:58.016Z,97.77
2023-02-14T23:34:26.261Z,98.16
2023-02-14T23:36:53.591Z,98.31
2023-02-14T23:39:20.841Z,97.10
2023-02-14T23:41:48.091Z,98.03
2023-02-14T23:44:21.321Z,97.91
2023-02-14T23:46:49.117Z,97.51
2023-02-14T23:49:16.924Z,97.64
2023-02-14T23:51:45.252Z,97.34
2023-02-14T23:54:12.798Z,97.70
2023-02-14T23:56:40.360Z,98.33
2023-02-14T23:59:08.129Z,98.60
